createdAt,value
2022-09-23T00:03:34.335Z,10.50
2022-09-23T00:08:40.250Z,10.47
2022-09-23T00:13:46.306Z,10.33
2022-09-23T00:18:50.678Z,10.25
2022-09-23T00:23:55.542Z,10.22
2022-09-23T00:28:58.898Z,10.05
2022-09-23T00:34:02.941Z,10.03
2022-09-23T00:39:07.927Z,9.95
2022-09-23T00:44:47.877Z,9.95
2022-09-23T00:50:02.138Z,9.89
2022-09-23T00:55:12.635Z,10.01
2022-09-23T01:00:16.758Z,9.91
2022-09-23T01:05:20.602Z,10.03
2022-09-23T01:10:26.673Z,9.85
2022-09-23T01:15:37.003Z,9.65
2022-09-23T01:21:14.451Z,9.70
2022-09-23T01:26:43.945Z,9.74
2022-09-23T01:31:57.979Z,9.81
2022-09-23T01:37:09.062Z,9.78
2022-09-23T01:42:18.671Z,9.51
2022-09-23T01:47:30.765Z,9.45
2022-09-23T01:52:41.704Z,9.18
2022-09-23T01:57:50.590Z,8.91
2022-09-23T02:03:01.072Z,8.96
2022-09-23T02:08:10.620Z,9.12
2022-09-23T02:13:20.685Z,9.10
2022-09-23T02:18:29.818Z,9.13
2022-09-23T02:23:37.563Z,9.03
2022-09-23T02:28:49.944Z,8.97
2022-09-23T02:33:58.466Z,8.95
2022-09-23T02:39:06.990Z,8.99
2022-09-23T02:44:13.431Z,9.15
2022-09-23T02:49:21.873Z,9.33
2022-09-23T02:54:29.889Z,9.25
2022-09-23T02:59:35.134Z,9.18
2022-09-23T03:04:50.543Z,9.09
2022-09-23T03:10:01.398Z,9.02
2022-09-23T03:15:20.040Z,8.83
2022-09-23T03:20:31.505Z,8.86
2022-09-23T03:25:39.153Z,8.90
2022-09-23T03:30:43.639Z,8.68
2022-09-23T03:36:11.046Z,8.67
2022-09-23T03:41:19.783Z,8.59
2022-09-23T03:46:26.647Z,8.55
2022-09-23T03:51:31.481Z,8.71
2022-09-23T03:56:35.070Z,8.83
2022-09-23T04:01:38.625Z,8.91
2022-09-23T04:06:43.465Z,8.93
2022-09-23T04:11:47.401Z,8.89
2022-09-23T04:16:51.774Z,8.92
2022-09-23T04:21:56.601Z,8.87
2022-09-23T04:27:00.737Z,8.81
2022-09-23T04:32:04.382Z,8.84
2022-09-23T04:37:09.222Z,9.02
2022-09-23T04:42:12.644Z,9.04
2022-09-23T04:47:16.391Z,9.14
2022-09-23T04:52:21.499Z,9.07
2022-09-23T04:57:25.247Z,9.11
2022-09-23T05:02:28.759Z,9.30
2022-09-23T05:07:33.591Z,9.43
2022-09-23T05:12:37.024Z,9.17
2022-09-23T05:17:40.450Z,9.32
2022-09-23T05:22:45.741Z,9.47
2022-09-23T05:27:49.138Z,9.87
2022-09-23T05:32:52.555Z,10.16
2022-09-23T05:37:57.827Z,10.40
2022-09-23T05:43:01.225Z,10.66
2022-09-23T05:48:04.847Z,10.88
2022-09-23T05:53:09.867Z,11.03
2022-09-23T05:58:13.485Z,11.11
2022-09-23T06:03:19.083Z,11.33
2022-09-23T06:08:25.287Z,11.53
2022-09-23T06:13:28.705Z,11.74
2022-09-23T06:18:32.050Z,11.91
2022-09-23T06:23:39.901Z,12.09
2022-09-23T06:28:46.388Z,12.21
2022-09-23T06:34:04.619Z,12.26
2022-09-23T06:39:14.317Z,13.04
2022-09-23T06:44:18.014Z,13.50
2022-09-23T06:49:22.806Z,13.50
2022-09-23T06:54:29.147Z,13.65
2022-09-23T06:59:32.537Z,14.05
2022-09-23T07:04:36.097Z,14.36
2022-09-23T07:09:40.965Z,14.74
2022-09-23T07:14:44.570Z,14.97
2022-09-23T07:19:47.984Z,15.14
2022-09-23T07:24:56.133Z,15.36
2022-09-23T07:29:59.622Z,15.38
2022-09-23T07:35:03.064Z,15.80
2022-09-23T07:40:09.621Z,16.18
2022-09-23T07:45:14.275Z,16.21
2022-09-23T07:50:19.192Z,16.36
2022-09-23T07:55:24.307Z,16.39
2022-09-23T08:00:27.827Z,16.81
2022-09-23T08:05:31.966Z,17.27
2022-09-23T08:10:36.780Z,17.30
2022-09-23T08:15:44.327Z,17.09
2022-09-23T08:20:48.306Z,17.51
2022-09-23T08:25:59.735Z,17.72
2022-09-23T08:31:03.574Z,17.78
2022-09-23T08:36:08.061Z,18.23
2022-09-23T08:41:23.824Z,18.36
2022-09-23T08:46:31.219Z,18.81
2022-09-23T08:51:47.052Z,19.11
2022-09-23T08:56:53.447Z,19.05
2022-09-23T09:02:01.784Z,18.95
2022-09-23T09:12:44.694Z,19.43
2022-09-23T09:17:56.746Z,19.60
2022-09-23T09:23:01.175Z,20.61
2022-09-23T09:28:21.222Z,19.50
2022-09-23T09:33:30.956Z,19.09
2022-09-23T09:38:34.484Z,20.65
2022-09-23T09:43:44.012Z,19.96
2022-09-23T09:48:53.979Z,20.62
2022-09-23T09:54:17.575Z,19.30
2022-09-23T09:59:28.612Z,19.48
2022-09-23T10:04:36.821Z,20.31
2022-09-23T10:09:43.158Z,21.01
2022-09-23T10:14:50.642Z,21.27
2022-09-23T10:20:00.914Z,21.43
2022-09-23T10:25:09.981Z,21.84
2022-09-23T10:30:24.148Z,20.14
2022-09-23T10:35:28.462Z,20.52
2022-09-23T10:40:51.562Z,20.89
2022-09-23T10:46:21.571Z,20.34
2022-09-23T10:51:33.429Z,19.49
2022-09-23T10:56:40.823Z,18.34
2022-09-23T11:01:52.642Z,18.55
2022-09-23T11:07:08.980Z,19.05
2022-09-23T11:12:28.625Z,20.66
2022-09-23T11:18:20.575Z,18.95
2022-09-23T11:23:38.573Z,18.42
2022-09-23T11:28:56.729Z,19.05
2022-09-23T11:34:18.267Z,20.95
2022-09-23T11:39:29.561Z,21.84
2022-09-23T11:44:38.258Z,20.72
2022-09-23T11:49:50.901Z,19.80
2022-09-23T11:55:02.375Z,19.04
2022-09-23T12:00:15.232Z,18.79
2022-09-23T12:05:24.831Z,20.98
2022-09-23T12:10:42.398Z,20.36
2022-09-23T12:16:00.187Z,19.42
2022-09-23T12:21:39.079Z,19.29
2022-09-23T12:26:44.973Z,18.67
2022-09-23T12:31:49.908Z,19.67
2022-09-23T12:36:55.314Z,20.45
2022-09-23T12:42:01.032Z,19.12
2022-09-23T12:47:32.411Z,18.37
2022-09-23T12:52:37.593Z,18.25
2022-09-23T12:57:43.043Z,19.05
2022-09-23T13:03:10.123Z,18.61
2022-09-23T13:08:18.857Z,18.41
2022-09-23T13:13:29.827Z,18.28
2022-09-23T13:18:58.288Z,18.11
2022-09-23T13:24:36.366Z,17.94
2022-09-23T13:29:45.075Z,17.90
2022-09-23T13:34:58.293Z,17.82
2022-09-23T13:40:20.537Z,16.66
2022-09-23T13:45:26.805Z,16.33
2022-09-23T13:50:34.817Z,15.78
2022-09-23T13:55:41.547Z,16.42
2022-09-23T14:00:45.035Z,16.11
2022-09-23T14:05:49.927Z,16.13
2022-09-23T14:10:55.580Z,16.77
2022-09-23T14:16:03.437Z,16.39
2022-09-23T14:21:07.923Z,16.52
2022-09-23T14:26:13.277Z,16.16
2022-09-23T14:31:17.008Z,15.98
2022-09-23T14:36:38.083Z,16.14
2022-09-23T14:41:45.855Z,16.40
2022-09-23T14:46:57.794Z,16.45
2022-09-23T14:52:07.162Z,16.29
2022-09-23T14:57:28.387Z,16.23
2022-09-23T15:02:35.062Z,16.37
2022-09-23T15:07:39.723Z,16.33
2022-09-23T15:12:49.868Z,16.16
2022-09-23T15:17:53.303Z,16.16
2022-09-23T15:22:57.323Z,16.01
2022-09-23T15:28:19.038Z,16.00
2022-09-23T15:33:27.996Z,15.95
2022-09-23T15:38:31.899Z,15.98
2022-09-23T15:43:37.833Z,15.96
2022-09-23T15:48:44.659Z,15.85
2022-09-23T15:53:48.489Z,15.62
2022-09-23T15:58:53.301Z,15.47
2022-09-23T16:03:57.258Z,15.36
2022-09-23T16:09:00.709Z,15.20
2022-09-23T16:14:06.480Z,15.03
2022-09-23T16:19:09.918Z,14.88
2022-09-23T16:24:17.564Z,14.45
2022-09-23T16:29:22.699Z,14.48
2022-09-23T16:34:26.134Z,14.47
2022-09-23T16:39:29.526Z,14.41
2022-09-23T16:44:34.371Z,14.30
2022-09-23T16:49:37.832Z,14.27
2022-09-23T16:54:42.308Z,14.19
2022-09-23T17:00:04.563Z,14.16
2022-09-23T17:05:08.973Z,14.05
2022-09-23T17:10:13.070Z,14.05
2022-09-23T17:15:17.946Z,14.06
2022-09-23T17:20:21.436Z,13.93
2022-09-23T17:25:24.915Z,13.90
2022-09-23T17:30:30.175Z,13.72
2022-09-23T17:35:33.637Z,13.65
2022-09-23T17:40:41.545Z,13.73
2022-09-23T17:45:46.525Z,13.67
2022-09-23T17:51:02.107Z,13.52
2022-09-23T17:56:07.380Z,13.36
2022-09-23T18:01:13.456Z,13.30
2022-09-23T18:06:18.931Z,13.26
2022-09-23T18:11:24.184Z,13.26
2022-09-23T18:16:31.073Z,13.22
2022-09-23T18:21:36.574Z,13.36
2022-09-23T18:26:40.341Z,13.36
2022-09-23T18:31:45.579Z,13.32
2022-09-23T18:36:49.633Z,13.22
2022-09-23T18:41:53.017Z,12.87
2022-09-23T18:46:57.845Z,12.95
2022-09-23T18:52:01.323Z,12.84
2022-09-23T18:57:05.258Z,12.79
2022-09-23T19:02:10.353Z,12.52
2022-09-23T19:07:14.232Z,12.50
2022-09-23T19:12:17.600Z,12.29
2022-09-23T19:17:22.760Z,12.39
2022-09-23T19:22:26.493Z,12.61
2022-09-23T19:27:29.857Z,12.56
2022-09-23T19:32:34.965Z,12.59
2022-09-23T19:37:38.417Z,12.63
2022-09-23T19:42:43.064Z,12.61
2022-09-23T19:47:47.866Z,12.55
2022-09-23T19:52:51.932Z,12.33
2022-09-23T19:57:55.631Z,11.93
2022-09-23T20:03:00.876Z,11.59
2022-09-23T20:08:05.210Z,11.60
2022-09-23T20:13:08.749Z,11.59
2022-09-23T20:18:13.549Z,11.51
2022-09-23T20:23:16.913Z,11.30
2022-09-23T20:28:22.496Z,11.09
2022-09-23T20:33:27.570Z,11.25
2022-09-23T20:38:32.162Z,11.21
2022-09-23T20:43:35.634Z,11.08
2022-09-23T20:48:41.255Z,11.04
2022-09-23T20:53:46.893Z,10.78
2022-09-23T20:58:50.968Z,10.57
2022-09-23T21:03:56.059Z,10.58
2022-09-23T21:08:59.813Z,10.37
2022-09-23T21:14:03.815Z,10.37
2022-09-23T21:19:09.474Z,10.35
2022-09-23T21:29:36.857Z,10.43
2022-09-23T21:34:41.946Z,10.40
2022-09-23T21:40:05.967Z,10.46
2022-09-23T21:45:10.106Z,10.52
2022-09-23T21:50:15.406Z,10.38
2022-09-23T21:55:19.369Z,10.54
2022-09-23T22:00:23.586Z,10.54
2022-09-23T22:05:28.695Z,10.56
2022-09-23T22:10:32.121Z,10.47
2022-09-23T22:15:37.580Z,10.32
2022-09-23T22:20:42.563Z,10.19
2022-09-23T22:25:45.980Z,9.94
2022-09-23T22:31:06.805Z,9.87
2022-09-23T22:36:12.984Z,9.67
2022-09-23T22:41:16.458Z,9.68
2022-09-23T22:46:22.025Z,9.97
2022-09-23T22:51:27.246Z,10.10
2022-09-23T22:56:30.958Z,10.20
2022-09-23T23:01:35.551Z,10.27
2022-09-23T23:06:41.419Z,10.24
2022-09-23T23:11:45.653Z,10.07
2022-09-23T23:16:49.428Z,10.04
2022-09-23T23:21:54.509Z,9.95
2022-09-23T23:26:58.140Z,9.96
2022-09-23T23:32:01.573Z,10.01
2022-09-23T23:37:06.709Z,9.95
2022-09-23T23:42:10.296Z,10.04
2022-09-23T23:47:13.971Z,10.07
2022-09-23T23:52:18.899Z,9.92
2022-09-23T23:57:22.315Z,9.71
